createdAt,value
2017-12-23T00:01:24.467Z,97201.23
2017-12-23T00:03:51.960Z,97200.31
2017-12-23T00:06:19.428Z,97188.11
2017-12-23T00:08:46.897Z,97198.64
2017-12-23T00:11:14.376Z,97198.27
2017-12-23T00:13:41.855Z,97203.31
2017-12-23T00:16:09.414Z,97197.00
2017-12-23T00:18:36.877Z,97197.38
2017-12-23T00:21:04.361Z,97192.81
2017-12-23T00:23:31.832Z,97191.99
2017-12-23T00:25:59.294Z,97194.52
2017-12-23T00:28:26.824Z,97194.22
2017-12-23T00:30:54.289Z,97202.46
2017-12-23T00:33:21.805Z,97202.49
2017-12-23T00:35:49.268Z,97197.83
2017-12-23T00:38:16.758Z,97199.46
2017-12-23T00:40:44.228Z,97202.33
2017-12-23T00:43:11.688Z,97208.67
2017-12-23T00:45:39.175Z,97212.45
2017-12-23T00:48:06.657Z,97203.15
2017-12-23T00:50:34.141Z,97198.07
2017-12-23T00:53:01.604Z,97200.66
2017-12-23T00:55:29.093Z,97205.70
2017-12-23T00:57:56.560Z,97211.47
2017-12-23T01:00:24.024Z,97209.45
2017-12-23T01:02:51.509Z,97217.43
2017-12-23T01:05:18.972Z,97212.02
2017-12-23T01:07:46.440Z,97217.94
2017-12-23T01:10:13.921Z,97210.34
2017-12-23T01:12:41.389Z,97206.55
2017-12-23T01:15:08.852Z,97204.00
2017-12-23T01:17:36.369Z,97206.17
2017-12-23T01:20:03.832Z,97209.89
2017-12-23T01:22:31.312Z,97202.64
2017-12-23T01:24:58.797Z,97208.23
2017-12-23T01:27:26.260Z,97194.80
2017-12-23T01:29:53.729Z,97190.19
2017-12-23T01:32:21.211Z,97192.27
2017-12-23T01:34:48.680Z,97185.55
2017-12-23T01:37:16.148Z,97197.28
2017-12-23T01:39:43.637Z,97198.17
2017-12-23T01:42:11.100Z,97201.98
2017-12-23T01:44:38.560Z,97199.58
2017-12-23T01:47:06.048Z,97191.73
2017-12-23T01:49:33.512Z,97193.16
2017-12-23T01:52:00.976Z,97185.66
2017-12-23T01:54:28.464Z,97183.28
2017-12-23T01:56:55.936Z,97174.58
2017-12-23T01:59:23.413Z,97177.58
2017-12-23T02:01:50.892Z,97174.27
2017-12-23T02:04:18.356Z,97171.84
2017-12-23T02:06:45.840Z,97175.91
2017-12-23T02:09:13.397Z,97164.15
2017-12-23T02:11:40.884Z,97176.16
2017-12-23T02:14:08.356Z,97174.63
2017-12-23T02:16:35.842Z,97172.84
2017-12-23T02:19:03.321Z,97172.20
2017-12-23T02:21:30.800Z,97168.45
2017-12-23T02:23:58.268Z,97166.41
2017-12-23T02:26:25.749Z,97166.67
2017-12-23T02:28:53.216Z,97165.75
2017-12-23T02:31:20.704Z,97158.66
2017-12-23T02:33:48.180Z,97166.03
2017-12-23T02:36:15.673Z,97156.72
2017-12-23T02:38:43.196Z,97149.73
2017-12-23T02:41:10.688Z,97151.92
2017-12-23T02:43:38.212Z,97151.61
2017-12-23T02:46:05.693Z,97151.61
2017-12-23T02:48:33.996Z,97147.79
2017-12-23T02:51:01.477Z,97145.36
2017-12-23T02:53:28.945Z,97138.20
2017-12-23T02:55:56.429Z,97129.72
2017-12-23T02:58:23.896Z,97128.46
2017-12-23T03:00:51.377Z,97131.90
2017-12-23T03:03:18.844Z,97128.94
2017-12-23T03:05:46.324Z,97125.66
2017-12-23T03:08:13.793Z,97123.14
2017-12-23T03:10:41.276Z,97131.12
2017-12-23T03:13:08.829Z,97139.95
2017-12-23T03:15:36.309Z,97146.69
2017-12-23T03:18:03.773Z,97147.98
2017-12-23T03:20:31.256Z,97142.91
2017-12-23T03:22:58.725Z,97134.46
2017-12-23T03:25:26.205Z,97135.66
2017-12-23T03:27:53.669Z,97132.38
2017-12-23T03:30:21.145Z,97131.52
2017-12-23T03:32:48.607Z,97128.22
2017-12-23T03:35:16.089Z,97136.84
2017-12-23T03:37:43.552Z,97140.36
2017-12-23T03:40:11.033Z,97141.24
2017-12-23T03:42:38.496Z,97142.47
2017-12-23T03:45:05.993Z,97138.69
2017-12-23T03:47:33.457Z,97135.78
2017-12-23T03:50:00.945Z,97126.38
2017-12-23T03:52:28.420Z,97131.62
2017-12-23T03:54:55.900Z,97122.86
2017-12-23T03:57:23.361Z,97112.81
2017-12-23T03:59:50.836Z,97102.31
2017-12-23T04:02:18.296Z,97093.05
2017-12-23T04:04:45.781Z,97093.02
2017-12-23T04:07:13.286Z,97099.39
2017-12-23T04:09:40.768Z,97102.35
2017-12-23T04:12:08.230Z,97101.06
2017-12-23T04:14:35.721Z,97107.56
2017-12-23T04:17:03.188Z,97109.00
2017-12-23T04:19:30.671Z,97102.19
2017-12-23T04:21:58.135Z,97097.52
2017-12-23T04:24:25.596Z,97104.09
2017-12-23T04:26:53.078Z,97105.38
2017-12-23T04:29:20.548Z,97103.23
2017-12-23T04:31:48.033Z,97099.52
2017-12-23T04:34:15.507Z,97103.38
2017-12-23T04:36:42.991Z,97100.78
2017-12-23T04:39:10.476Z,97094.34
2017-12-23T04:41:37.956Z,97102.90
2017-12-23T04:44:05.420Z,97096.21
2017-12-23T04:46:32.904Z,97089.94
2017-12-23T04:49:00.369Z,97094.00
2017-12-23T04:51:27.849Z,97086.91
2017-12-23T04:53:55.320Z,97089.56
2017-12-23T04:56:22.800Z,97099.83
2017-12-23T04:58:50.285Z,97103.61
2017-12-23T05:01:17.769Z,97113.53
2017-12-23T05:03:45.233Z,97113.19
2017-12-23T05:06:12.701Z,97125.87
2017-12-23T05:08:40.184Z,97119.50
2017-12-23T05:11:07.656Z,97127.06
2017-12-23T05:13:35.139Z,97118.64
2017-12-23T05:16:02.688Z,97113.80
2017-12-23T05:18:30.182Z,97129.52
2017-12-23T05:20:57.653Z,97128.73
2017-12-23T05:23:25.137Z,97140.05
2017-12-23T05:25:52.600Z,97136.00
2017-12-23T05:28:20.096Z,97141.58
2017-12-23T05:30:47.571Z,97125.94
2017-12-23T05:33:15.049Z,97135.89
2017-12-23T05:35:42.517Z,97134.97
2017-12-23T05:38:10.107Z,97138.79
2017-12-23T05:40:37.584Z,97137.59
2017-12-23T05:43:05.073Z,97134.63
2017-12-23T05:45:32.540Z,97134.63
2017-12-23T05:48:00.021Z,97136.20
2017-12-23T05:50:27.488Z,97120.17
2017-12-23T05:52:54.970Z,97120.28
2017-12-23T05:55:22.432Z,97126.04
2017-12-23T05:57:58.197Z,97126.11
2017-12-23T06:00:25.660Z,97123.52
2017-12-23T06:02:53.136Z,97114.63
2017-12-23T06:05:20.602Z,97122.43
2017-12-23T06:07:49.072Z,97134.91
2017-12-23T06:10:16.544Z,97141.72
2017-12-23T06:12:44.028Z,97131.94
2017-12-23T06:15:11.508Z,97141.66
2017-12-23T06:17:38.988Z,97139.98
2017-12-23T06:20:06.457Z,97128.25
2017-12-23T06:22:33.936Z,97121.51
2017-12-23T06:25:01.409Z,97122.33
2017-12-23T06:27:28.900Z,97121.55
2017-12-23T06:29:56.374Z,97137.32
2017-12-23T06:32:23.852Z,97134.87
2017-12-23T06:34:51.314Z,97143.26
2017-12-23T06:37:18.795Z,97134.73
2017-12-23T06:39:46.268Z,97136.81
2017-12-23T06:42:13.748Z,97130.91
2017-12-23T06:44:41.221Z,97131.77
2017-12-23T06:47:08.700Z,97129.62
2017-12-23T06:49:36.194Z,97130.88
2017-12-23T06:52:03.754Z,97125.42
2017-12-23T06:54:31.220Z,97130.44
2017-12-23T06:56:58.792Z,97132.08
2017-12-23T06:59:26.269Z,97139.23
2017-12-23T07:01:53.816Z,97144.99
2017-12-23T07:04:21.292Z,97144.45
2017-12-23T07:06:48.812Z,97139.95
2017-12-23T07:09:16.284Z,97146.52
2017-12-23T07:11:43.768Z,97149.22
2017-12-23T07:14:11.237Z,97141.95
2017-12-23T07:16:38.834Z,97136.64
2017-12-23T07:19:06.300Z,97134.63
2017-12-23T07:21:33.780Z,97133.34
2017-12-23T07:24:01.245Z,97140.28
2017-12-23T07:26:28.808Z,97135.75
2017-12-23T07:28:56.278Z,97137.87
2017-12-23T07:31:23.744Z,97138.28
2017-12-23T07:33:51.225Z,97143.70
2017-12-23T07:36:18.698Z,97148.74
2017-12-23T07:38:46.179Z,97150.31
2017-12-23T07:41:13.644Z,97150.79
2017-12-23T07:43:41.122Z,97144.41
2017-12-23T07:46:08.593Z,97149.77
2017-12-23T07:48:36.076Z,97154.23
2017-12-23T07:51:03.628Z,97157.23
2017-12-23T07:53:31.132Z,97156.20
2017-12-23T07:55:58.602Z,97148.66
2017-12-23T07:58:26.083Z,97147.67
2017-12-23T08:00:53.569Z,97147.59
2017-12-23T08:03:21.052Z,97156.91
2017-12-23T08:05:48.517Z,97149.64
2017-12-23T08:08:16.004Z,97153.73
2017-12-23T08:10:43.473Z,97147.83
2017-12-23T08:13:10.957Z,97147.08
2017-12-23T08:15:38.425Z,97135.28
2017-12-23T08:18:05.913Z,97138.85
2017-12-23T08:20:33.381Z,97141.30
2017-12-23T08:23:00.859Z,97142.08
2017-12-23T08:25:28.328Z,97145.13
2017-12-23T08:27:55.818Z,97147.72
2017-12-23T08:30:23.289Z,97146.91
2017-12-23T08:32:50.845Z,97150.22
2017-12-23T08:35:18.316Z,97156.53
2017-12-23T08:37:45.797Z,97151.55
2017-12-23T08:40:13.263Z,97156.27
2017-12-23T08:42:40.745Z,97160.39
2017-12-23T08:45:08.213Z,97160.80
2017-12-23T08:47:35.696Z,97161.25
2017-12-23T08:50:03.177Z,97156.49
2017-12-23T08:52:30.649Z,97156.20
2017-12-23T08:54:58.140Z,97158.31
2017-12-23T08:57:25.609Z,97160.84
2017-12-23T08:59:53.092Z,97164.33
2017-12-23T09:02:20.643Z,97166.27
2017-12-23T09:04:48.139Z,97175.81
2017-12-23T09:07:15.652Z,97172.17
2017-12-23T09:09:43.133Z,97174.69
2017-12-23T09:12:10.616Z,97170.75
2017-12-23T09:14:38.290Z,97175.50
2017-12-23T09:17:05.757Z,97175.98
2017-12-23T09:19:33.241Z,97179.00
2017-12-23T09:22:00.806Z,97187.63
2017-12-23T09:24:28.291Z,97184.42
2017-12-23T09:26:55.756Z,97179.08
2017-12-23T09:29:23.236Z,97181.75
2017-12-23T09:31:50.782Z,97180.64
2017-12-23T09:34:18.284Z,97182.87
2017-12-23T09:36:45.764Z,97186.47
2017-12-23T09:39:13.248Z,97194.42
2017-12-23T09:41:40.713Z,97199.66
2017-12-23T09:44:08.197Z,97205.46
2017-12-23T09:46:35.661Z,97207.57
2017-12-23T09:49:03.149Z,97209.36
2017-12-23T09:51:30.624Z,97211.51
2017-12-23T09:53:58.163Z,97219.20
2017-12-23T09:56:25.637Z,97215.82
2017-12-23T09:58:53.281Z,97217.16
2017-12-23T10:01:20.744Z,97204.83
2017-12-23T10:03:48.414Z,97201.89
2017-12-23T10:06:15.904Z,97199.36
2017-12-23T10:08:43.385Z,97205.01
2017-12-23T10:11:10.860Z,97198.61
2017-12-23T10:13:38.354Z,97198.31
2017-12-23T10:16:05.828Z,97197.64
2017-12-23T10:18:33.312Z,97194.78
2017-12-23T10:21:00.777Z,97196.16
2017-12-23T10:23:28.256Z,97197.05
2017-12-23T10:25:55.729Z,97191.73
2017-12-23T10:28:23.214Z,97188.34
2017-12-23T10:30:50.696Z,97178.73
2017-12-23T10:33:18.171Z,97171.66
2017-12-23T10:35:45.664Z,97176.53
2017-12-23T10:38:13.141Z,97177.70
2017-12-23T10:40:40.620Z,97168.72
2017-12-23T10:43:08.084Z,97169.53
2017-12-23T10:45:35.596Z,97170.42
2017-12-23T10:48:03.073Z,97162.27
2017-12-23T10:50:30.572Z,97155.91
2017-12-23T10:52:58.043Z,97152.73
2017-12-23T10:55:25.521Z,97150.53
2017-12-23T10:57:52.988Z,97153.75
2017-12-23T11:00:20.469Z,97147.71
2017-12-23T11:02:47.932Z,97152.41
2017-12-23T11:05:15.412Z,97157.66
2017-12-23T11:07:42.872Z,97141.95
2017-12-23T11:10:10.356Z,97143.03
2017-12-23T11:12:37.829Z,97132.75
2017-12-23T11:15:05.308Z,97128.62
2017-12-23T11:17:32.776Z,97134.22
2017-12-23T11:20:00.256Z,97131.00
2017-12-23T11:22:27.734Z,97130.09
2017-12-23T11:24:55.221Z,97124.67
2017-12-23T11:27:22.684Z,97121.67
2017-12-23T11:29:50.167Z,97118.95
2017-12-23T11:32:17.648Z,97119.83
2017-12-23T11:34:45.135Z,97115.41
2017-12-23T11:37:12.608Z,97112.64
2017-12-23T11:39:40.097Z,97105.84
2017-12-23T11:42:07.560Z,97108.98
2017-12-23T11:44:35.057Z,97117.81
2017-12-23T11:47:02.537Z,97123.22
2017-12-23T11:49:30.053Z,97118.47
2017-12-23T11:51:57.555Z,97111.41
2017-12-23T11:54:25.117Z,97115.78
2017-12-23T11:56:52.577Z,97115.25
2017-12-23T11:59:20.056Z,97113.21
2017-12-23T12:01:47.521Z,97115.89
2017-12-23T12:04:15.007Z,97105.53
2017-12-23T12:06:42.472Z,97101.18
2017-12-23T12:09:09.952Z,97110.91
2017-12-23T12:11:37.413Z,97102.91
2017-12-23T12:14:04.963Z,97105.61
2017-12-23T12:16:32.381Z,97101.47
2017-12-23T12:18:59.865Z,97103.66
2017-12-23T12:21:27.338Z,97095.65
2017-12-23T12:23:54.813Z,97098.55
2017-12-23T12:26:22.264Z,97087.49
2017-12-23T12:28:49.741Z,97085.80
2017-12-23T12:31:17.197Z,97077.16
2017-12-23T12:33:44.673Z,97074.97
2017-12-23T12:36:12.129Z,97070.20
2017-12-23T12:38:39.604Z,97075.73
2017-12-23T12:41:07.060Z,97074.33
2017-12-23T12:43:34.532Z,97072.42
2017-12-23T12:46:01.988Z,97072.77
2017-12-23T12:48:29.464Z,97061.63
2017-12-23T12:50:56.916Z,97068.85
2017-12-23T12:53:24.369Z,97062.51
2017-12-23T12:55:51.845Z,97062.29
2017-12-23T12:58:19.297Z,97055.79
2017-12-23T13:00:46.920Z,97053.04
2017-12-23T13:03:14.624Z,97055.30
2017-12-23T13:05:42.093Z,97056.88
2017-12-23T13:08:09.553Z,97053.92
2017-12-23T13:10:37.020Z,97059.74
2017-12-23T13:13:04.481Z,97061.42
2017-12-23T13:15:31.972Z,97061.94
2017-12-23T13:17:59.454Z,97055.69
2017-12-23T13:20:26.913Z,97059.48
2017-12-23T13:22:54.393Z,97064.83
2017-12-23T13:25:21.853Z,97060.94
2017-12-23T13:27:49.325Z,97063.37
2017-12-23T13:30:16.781Z,97061.52
2017-12-23T13:32:44.252Z,97066.46
2017-12-23T13:35:11.705Z,97067.00
2017-12-23T13:37:39.180Z,97064.61
2017-12-23T13:40:06.632Z,97057.23
2017-12-23T13:42:34.109Z,97062.97
2017-12-23T13:45:01.568Z,97058.40
2017-12-23T13:47:29.040Z,97061.47
2017-12-23T13:49:56.497Z,97059.52
2017-12-23T13:52:23.973Z,97058.22
2017-12-23T13:54:51.432Z,97055.98
2017-12-23T13:57:18.909Z,97056.17
2017-12-23T13:59:46.364Z,97055.54
2017-12-23T14:02:13.845Z,97050.45
2017-12-23T14:04:41.300Z,97054.11
2017-12-23T14:07:08.781Z,97041.43
2017-12-23T14:09:36.245Z,97054.16
2017-12-23T14:12:03.721Z,97056.31
2017-12-23T14:14:31.186Z,97050.56
2017-12-23T14:16:59.608Z,97050.16
2017-12-23T14:19:27.064Z,97057.45
2017-12-23T14:21:54.548Z,97052.69
2017-12-23T14:24:22.009Z,97054.23
2017-12-23T14:26:49.484Z,97057.12
2017-12-23T14:29:16.941Z,97058.38
2017-12-23T14:31:44.413Z,97055.45
2017-12-23T14:34:11.885Z,97056.20
2017-12-23T14:36:39.714Z,97055.23
2017-12-23T14:39:07.177Z,97053.48
2017-12-23T14:41:34.649Z,97050.17
2017-12-23T14:44:02.109Z,97053.36
2017-12-23T14:46:29.581Z,97056.50
2017-12-23T14:48:57.124Z,97055.55
2017-12-23T14:51:24.669Z,97056.00
2017-12-23T14:53:52.146Z,97056.65
2017-12-23T14:56:19.609Z,97054.95
2017-12-23T14:58:47.080Z,97053.69
2017-12-23T15:01:14.541Z,97040.72
2017-12-23T15:03:42.012Z,97041.41
2017-12-23T15:06:09.468Z,97029.19
2017-12-23T15:08:36.949Z,97031.39
2017-12-23T15:11:04.413Z,97030.21
2017-12-23T15:13:31.891Z,97036.91
2017-12-23T15:15:59.405Z,97045.48
2017-12-23T15:18:26.921Z,97036.61
2017-12-23T15:20:54.378Z,97031.48
2017-12-23T15:23:21.888Z,97028.52
2017-12-23T15:25:49.341Z,97027.92
2017-12-23T15:28:17.817Z,97035.89
2017-12-23T15:30:45.273Z,97035.97
2017-12-23T15:33:12.749Z,97042.49
2017-12-23T15:35:40.214Z,97048.39
2017-12-23T15:38:07.688Z,97054.94
2017-12-23T15:40:35.148Z,97056.83
2017-12-23T15:43:02.652Z,97060.50
2017-12-23T15:45:30.107Z,97057.67
2017-12-23T15:47:57.589Z,97061.59
2017-12-23T15:50:28.895Z,97054.68
2017-12-23T15:52:56.376Z,97057.06
2017-12-23T15:55:23.841Z,97060.03
2017-12-23T15:57:51.313Z,97060.27
2017-12-23T16:00:18.769Z,97066.16
2017-12-23T16:02:46.247Z,97056.66
2017-12-23T16:05:13.708Z,97052.30
2017-12-23T16:07:41.193Z,97055.49
2017-12-23T16:10:08.656Z,97052.47
2017-12-23T16:12:36.144Z,97058.22
2017-12-23T16:15:03.609Z,97053.28
2017-12-23T16:17:31.097Z,97057.81
2017-12-23T16:19:58.563Z,97058.17
2017-12-23T16:22:26.044Z,97056.50
2017-12-23T16:24:53.509Z,97054.86
2017-12-23T16:27:20.998Z,97051.97
2017-12-23T16:29:48.463Z,97046.16
2017-12-23T16:32:15.949Z,97044.48
2017-12-23T16:34:43.412Z,97042.84
2017-12-23T16:37:10.892Z,97041.64
2017-12-23T16:39:38.404Z,97044.23
2017-12-23T16:42:05.887Z,97047.94
2017-12-23T16:44:33.395Z,97038.84
2017-12-23T16:47:00.888Z,97039.00
2017-12-23T16:49:28.420Z,97036.52
2017-12-23T16:51:55.980Z,97034.38
2017-12-23T16:54:23.508Z,97033.12
2017-12-23T16:56:51.045Z,97034.19
2017-12-23T16:59:18.609Z,97029.16
2017-12-23T17:01:46.121Z,97037.15
2017-12-23T17:04:13.700Z,97042.53
2017-12-23T17:06:41.287Z,97047.19
2017-12-23T17:09:08.836Z,97044.20
2017-12-23T17:11:36.361Z,97042.02
2017-12-23T17:14:03.917Z,97049.98
2017-12-23T17:16:31.442Z,97050.84
2017-12-23T17:18:58.924Z,97040.89
2017-12-23T17:21:26.420Z,97039.98
2017-12-23T17:23:54.080Z,97037.39
2017-12-23T17:26:21.779Z,97035.18
2017-12-23T17:29:01.066Z,97034.33
2017-12-23T17:31:28.528Z,97023.41
2017-12-23T17:33:56.021Z,97016.49
2017-12-23T17:36:23.485Z,97015.44
2017-12-23T17:38:51.087Z,97013.30
2017-12-23T17:41:18.557Z,97015.09
2017-12-23T17:43:46.041Z,97020.20
2017-12-23T17:46:13.505Z,97022.92
2017-12-23T17:48:41.129Z,97015.88
2017-12-23T17:51:08.592Z,97015.20
2017-12-23T17:53:36.072Z,97015.97
2017-12-23T17:56:03.541Z,97012.20
2017-12-23T17:58:31.027Z,97015.53
2017-12-23T18:00:58.501Z,97019.88
2017-12-23T18:03:25.981Z,97021.24
2017-12-23T18:05:53.444Z,97013.72
2017-12-23T18:08:20.941Z,97018.78
2017-12-23T18:10:48.405Z,97016.34
2017-12-23T18:13:15.885Z,97022.13
2017-12-23T18:15:43.349Z,97029.41
2017-12-23T18:18:10.840Z,97029.44
2017-12-23T18:20:38.309Z,97036.74
2017-12-23T18:23:05.808Z,97026.86
2017-12-23T18:25:33.273Z,97036.23
2017-12-23T18:28:00.754Z,97035.36
2017-12-23T18:30:28.220Z,97034.09
2017-12-23T18:32:55.705Z,97038.16
2017-12-23T18:35:23.173Z,97041.33
2017-12-23T18:37:50.657Z,97039.41
2017-12-23T18:40:18.117Z,97036.13
2017-12-23T18:42:45.596Z,97036.48
2017-12-23T18:45:13.060Z,97029.72
2017-12-23T18:47:40.540Z,97030.31
2017-12-23T18:50:08.013Z,97035.29
2017-12-23T18:52:35.496Z,97034.03
2017-12-23T18:55:03.024Z,97034.12
2017-12-23T18:57:30.504Z,97033.47
2017-12-23T18:59:57.973Z,97033.56
2017-12-23T19:02:25.443Z,97036.36
2017-12-23T19:04:52.955Z,97031.55
2017-12-23T19:07:20.417Z,97037.05
2017-12-23T19:09:47.916Z,97036.86
2017-12-23T19:12:15.381Z,97035.00
2017-12-23T19:14:42.860Z,97024.45
2017-12-23T19:17:10.330Z,97032.31
2017-12-23T19:19:37.818Z,97029.36
2017-12-23T19:22:05.320Z,97026.84
2017-12-23T19:24:32.804Z,97025.98
2017-12-23T19:27:00.274Z,97027.25
2017-12-23T19:29:27.768Z,97023.47
2017-12-23T19:31:55.232Z,97018.30
2017-12-23T19:34:22.713Z,97010.42
2017-12-23T19:36:50.178Z,97017.81
2017-12-23T19:39:17.668Z,97018.53
2017-12-23T19:41:45.133Z,97020.27
2017-12-23T19:44:12.621Z,97024.02
2017-12-23T19:46:40.085Z,97022.66
2017-12-23T19:49:07.600Z,97023.51
2017-12-23T19:51:35.069Z,97023.51
2017-12-23T19:54:02.557Z,97016.48
2017-12-23T19:56:30.024Z,97022.73
2017-12-23T19:58:57.505Z,97036.20
2017-12-23T20:01:24.972Z,97036.24
2017-12-23T20:03:52.576Z,97038.32
2017-12-23T20:06:20.041Z,97032.43
2017-12-23T20:08:47.525Z,97034.27
2017-12-23T20:11:14.993Z,97037.26
2017-12-23T20:13:42.475Z,97041.45
2017-12-23T20:16:09.941Z,97040.32
2017-12-23T20:18:37.422Z,97038.34
2017-12-23T20:21:04.900Z,97032.95
2017-12-23T20:23:32.392Z,97037.59
2017-12-23T20:25:59.856Z,97036.80
2017-12-23T20:28:27.340Z,97037.72
2017-12-23T20:30:54.803Z,97037.40
2017-12-23T20:33:22.269Z,97037.23
2017-12-23T20:35:49.747Z,97035.67
2017-12-23T20:38:17.213Z,97036.23
2017-12-23T20:40:44.700Z,97027.05
2017-12-23T20:43:12.169Z,97032.91
2017-12-23T20:45:39.649Z,97033.34
2017-12-23T20:48:07.114Z,97030.41
2017-12-23T20:50:34.596Z,97037.63
2017-12-23T20:53:02.061Z,97032.55
2017-12-23T20:55:29.629Z,97039.58
2017-12-23T20:57:57.149Z,97043.35
2017-12-23T21:00:24.629Z,97047.23
2017-12-23T21:02:52.089Z,97045.12
2017-12-23T21:05:19.571Z,97039.73
2017-12-23T21:07:47.049Z,97047.73
2017-12-23T21:10:14.528Z,97049.02
2017-12-23T21:12:41.988Z,97034.80
2017-12-23T21:15:09.472Z,97038.16
2017-12-23T21:17:36.941Z,97041.02
2017-12-23T21:20:04.425Z,97039.36
2017-12-23T21:22:31.900Z,97039.33
2017-12-23T21:24:59.396Z,97029.41
2017-12-23T21:27:26.864Z,97045.40
2017-12-23T21:29:54.352Z,97038.70
2017-12-23T21:32:21.821Z,97042.09
2017-12-23T21:34:49.300Z,97036.23
2017-12-23T21:37:16.772Z,97035.05
2017-12-23T21:39:44.257Z,97032.94
2017-12-23T21:42:11.724Z,97034.25
2017-12-23T21:44:39.200Z,97036.36
2017-12-23T21:47:06.672Z,97038.88
2017-12-23T21:49:34.158Z,97035.45
2017-12-23T21:52:01.624Z,97028.34
2017-12-23T21:54:29.114Z,97028.40
2017-12-23T21:56:56.577Z,97033.41
2017-12-23T21:59:24.162Z,97029.25
2017-12-23T22:01:51.629Z,97026.82
2017-12-23T22:04:19.117Z,97024.27
2017-12-23T22:06:46.585Z,97027.08
2017-12-23T22:09:14.093Z,97027.64
2017-12-23T22:11:41.564Z,97017.25
2017-12-23T22:14:09.048Z,97027.23
2017-12-23T22:16:36.520Z,97026.06
2017-12-23T22:19:04.001Z,97035.58
2017-12-23T22:21:31.506Z,97026.80
2017-12-23T22:23:58.978Z,97030.98
2017-12-23T22:26:26.461Z,97021.34
2017-12-23T22:28:54.367Z,97022.58
2017-12-23T22:31:21.849Z,97025.03
2017-12-23T22:33:49.312Z,97027.20
2017-12-23T22:36:16.794Z,97023.42
2017-12-23T22:38:44.266Z,97020.78
2017-12-23T22:41:11.746Z,97020.09
2017-12-23T22:43:39.209Z,97017.48
2017-12-23T22:46:06.701Z,97014.23
2017-12-23T22:48:34.185Z,97018.20
2017-12-23T22:51:01.664Z,97011.66
2017-12-23T22:53:29.129Z,97009.61
2017-12-23T22:55:56.615Z,97011.66
2017-12-23T22:58:24.081Z,97002.84
2017-12-23T23:00:56.193Z,97000.70
2017-12-23T23:03:23.657Z,97000.64
2017-12-23T23:05:51.138Z,96996.55
2017-12-23T23:08:18.604Z,97003.31
2017-12-23T23:10:46.092Z,96996.17
2017-12-23T23:13:13.552Z,96997.67
2017-12-23T23:15:41.037Z,96994.91
2017-12-23T23:18:08.501Z,96996.61
2017-12-23T23:20:35.981Z,96993.55
2017-12-23T23:23:03.443Z,96988.42
2017-12-23T23:25:30.924Z,96990.66
2017-12-23T23:27:58.389Z,96996.23
2017-12-23T23:30:25.873Z,96993.34
2017-12-23T23:32:53.336Z,96994.09
2017-12-23T23:35:20.825Z,96983.95
2017-12-23T23:37:48.297Z,96987.30
2017-12-23T23:40:15.776Z,96983.02
2017-12-23T23:42:43.240Z,96976.13
2017-12-23T23:45:10.720Z,96973.13
2017-12-23T23:47:38.185Z,96973.06
2017-12-23T23:50:05.670Z,96977.41
2017-12-23T23:52:33.140Z,96971.15
2017-12-23T23:55:00.636Z,96968.13
2017-12-23T23:57:28.101Z,96960.67
2017-12-23T23:59:55.613Z,96963.09
